sensor_id;sensor_type;location;lat;lon;timestamp;P1;durP1;ratioP1;P2;durP2;ratioP2
71513;SDS011;59335;46.652;21.272;2024-01-30T00:00:21;71.45;;;43.13;;
71513;SDS011;59335;46.652;21.272;2024-01-30T00:03:25;72.63;;;44.25;;
71513;SDS011;59335;46.652;21.272;2024-01-30T00:06:28;69.13;;;42.97;;
71513;SDS011;59335;46.652;21.272;2024-01-30T00:09:30;73.85;;;44.03;;
71513;SDS011;59335;46.652;21.272;2024-01-30T00:12:33;70.00;;;41.93;;
71513;SDS011;59335;46.652;21.272;2024-01-30T00:15:36;71.20;;;42.80;;
71513;SDS011;59335;46.652;21.272;2024-01-30T00:18:39;68.07;;;42.03;;
71513;SDS011;59335;46.652;21.272;2024-01-30T00:21:42;68.70;;;42.45;;
71513;SDS011;59335;46.652;21.272;2024-01-30T00:24:45;69.10;;;42.70;;
71513;SDS011;59335;46.652;21.272;2024-01-30T00:27:47;66.17;;;41.80;;
71513;SDS011;59335;46.652;21.272;2024-01-30T00:30:51;71.10;;;43.17;;
71513;SDS011;59335;46.652;21.272;2024-01-30T00:33:53;68.60;;;40.88;;
71513;SDS011;59335;46.652;21.272;2024-01-30T00:36:56;67.90;;;42.70;;
71513;SDS011;59335;46.652;21.272;2024-01-30T00:39:59;69.57;;;41.58;;
71513;SDS011;59335;46.652;21.272;2024-01-30T00:43:02;66.93;;;41.50;;
71513;SDS011;59335;46.652;21.272;2024-01-30T00:46:05;61.85;;;40.90;;
71513;SDS011;59335;46.652;21.272;2024-01-30T00:49:08;63.90;;;40.72;;
71513;SDS011;59335;46.652;21.272;2024-01-30T00:52:11;63.58;;;39.90;;
71513;SDS011;59335;46.652;21.272;2024-01-30T00:55:15;65.55;;;41.75;;
71513;SDS011;59335;46.652;21.272;2024-01-30T00:58:18;62.50;;;40.37;;
71513;SDS011;59335;46.652;21.272;2024-01-30T01:01:22;70.80;;;42.28;;
71513;SDS011;59335;46.652;21.272;2024-01-30T01:04:25;60.75;;;39.08;;
71513;SDS011;59335;46.652;21.272;2024-01-30T01:07:30;66.80;;;41.72;;
71513;SDS011;59335;46.652;21.272;2024-01-30T01:10:33;65.28;;;40.08;;
71513;SDS011;59335;46.652;21.272;2024-01-30T01:13:36;64.97;;;40.47;;
71513;SDS011;59335;46.652;21.272;2024-01-30T01:16:38;62.55;;;39.25;;
71513;SDS011;59335;46.652;21.272;2024-01-30T01:19:41;61.92;;;38.50;;
71513;SDS011;59335;46.652;21.272;2024-01-30T01:22:44;61.28;;;39.88;;
71513;SDS011;59335;46.652;21.272;2024-01-30T01:25:47;59.63;;;38.78;;
71513;SDS011;59335;46.652;21.272;2024-01-30T01:28:50;67.20;;;40.90;;
71513;SDS011;59335;46.652;21.272;2024-01-30T01:31:53;59.95;;;39.15;;
71513;SDS011;59335;46.652;21.272;2024-01-30T01:34:56;63.65;;;38.33;;
71513;SDS011;59335;46.652;21.272;2024-01-30T01:37:58;60.55;;;37.70;;
71513;SDS011;59335;46.652;21.272;2024-01-30T01:41:02;56.70;;;36.38;;
71513;SDS011;59335;46.652;21.272;2024-01-30T01:44:06;55.33;;;36.30;;
71513;SDS011;59335;46.652;21.272;2024-01-30T01:47:08;58.35;;;37.05;;
71513;SDS011;59335;46.652;21.272;2024-01-30T01:50:12;54.80;;;37.05;;
71513;SDS011;59335;46.652;21.272;2024-01-30T01:53:16;58.53;;;36.25;;
71513;SDS011;59335;46.652;21.272;2024-01-30T01:56:19;55.45;;;35.42;;
71513;SDS011;59335;46.652;21.272;2024-01-30T01:59:22;56.10;;;35.37;;
71513;SDS011;59335;46.652;21.272;2024-01-30T02:02:28;54.85;;;36.80;;
71513;SDS011;59335;46.652;21.272;2024-01-30T02:05:34;53.83;;;34.35;;
71513;SDS011;59335;46.652;21.272;2024-01-30T02:08:37;56.17;;;35.55;;
71513;SDS011;59335;46.652;21.272;2024-01-30T02:11:40;54.22;;;34.58;;
71513;SDS011;59335;46.652;21.272;2024-01-30T02:14:44;53.50;;;35.03;;
71513;SDS011;59335;46.652;21.272;2024-01-30T02:17:48;51.78;;;34.40;;
71513;SDS011;59335;46.652;21.272;2024-01-30T02:20:51;53.20;;;34.42;;
71513;SDS011;59335;46.652;21.272;2024-01-30T02:23:55;51.72;;;32.72;;
71513;SDS011;59335;46.652;21.272;2024-01-30T02:27:01;52.15;;;33.65;;
71513;SDS011;59335;46.652;21.272;2024-01-30T02:30:04;51.07;;;32.47;;
71513;SDS011;59335;46.652;21.272;2024-01-30T02:33:08;52.60;;;35.03;;
71513;SDS011;59335;46.652;21.272;2024-01-30T02:36:11;54.40;;;34.75;;
71513;SDS011;59335;46.652;21.272;2024-01-30T02:39:15;51.13;;;33.70;;
71513;SDS011;59335;46.652;21.272;2024-01-30T02:42:18;51.70;;;33.30;;
71513;SDS011;59335;46.652;21.272;2024-01-30T02:45:21;49.93;;;33.80;;
71513;SDS011;59335;46.652;21.272;2024-01-30T02:48:24;49.65;;;32.28;;
71513;SDS011;59335;46.652;21.272;2024-01-30T02:51:26;51.95;;;32.30;;
71513;SDS011;59335;46.652;21.272;2024-01-30T02:54:29;49.75;;;31.80;;
71513;SDS011;59335;46.652;21.272;2024-01-30T02:57:33;48.15;;;31.40;;
71513;SDS011;59335;46.652;21.272;2024-01-30T03:00:36;48.50;;;31.17;;
71513;SDS011;59335;46.652;21.272;2024-01-30T03:03:39;46.65;;;31.08;;
71513;SDS011;59335;46.652;21.272;2024-01-30T03:06:46;50.38;;;31.88;;
71513;SDS011;59335;46.652;21.272;2024-01-30T03:09:52;48.45;;;31.92;;
71513;SDS011;59335;46.652;21.272;2024-01-30T03:12:55;51.00;;;32.20;;
71513;SDS011;59335;46.652;21.272;2024-01-30T03:15:58;47.30;;;31.97;;
71513;SDS011;59335;46.652;21.272;2024-01-30T03:19:01;48.72;;;31.75;;
71513;SDS011;59335;46.652;21.272;2024-01-30T03:22:05;49.70;;;31.33;;
71513;SDS011;59335;46.652;21.272;2024-01-30T03:25:08;47.67;;;31.15;;
71513;SDS011;59335;46.652;21.272;2024-01-30T03:28:11;45.97;;;29.60;;
71513;SDS011;59335;46.652;21.272;2024-01-30T03:31:15;47.20;;;31.63;;
71513;SDS011;59335;46.652;21.272;2024-01-30T03:34:18;44.00;;;30.35;;
71513;SDS011;59335;46.652;21.272;2024-01-30T03:37:21;49.78;;;29.95;;
71513;SDS011;59335;46.652;21.272;2024-01-30T03:40:24;44.90;;;29.92;;
71513;SDS011;59335;46.652;21.272;2024-01-30T03:43:27;44.53;;;29.95;;
71513;SDS011;59335;46.652;21.272;2024-01-30T03:46:30;46.43;;;28.67;;
71513;SDS011;59335;46.652;21.272;2024-01-30T03:49:32;46.63;;;28.85;;
71513;SDS011;59335;46.652;21.272;2024-01-30T03:52:36;44.08;;;29.02;;
71513;SDS011;59335;46.652;21.272;2024-01-30T03:55:38;43.60;;;28.83;;
71513;SDS011;59335;46.652;21.272;2024-01-30T03:58:41;43.08;;;28.15;;
71513;SDS011;59335;46.652;21.272;2024-01-30T04:01:46;45.17;;;28.60;;
71513;SDS011;59335;46.652;21.272;2024-01-30T04:04:49;42.10;;;28.20;;
71513;SDS011;59335;46.652;21.272;2024-01-30T04:07:53;42.00;;;27.30;;
71513;SDS011;59335;46.652;21.272;2024-01-30T04:10:55;41.97;;;27.63;;
71513;SDS011;59335;46.652;21.272;2024-01-30T04:13:58;41.60;;;28.13;;
71513;SDS011;59335;46.652;21.272;2024-01-30T04:17:01;40.60;;;26.53;;
71513;SDS011;59335;46.652;21.272;2024-01-30T04:20:04;40.97;;;27.08;;
71513;SDS011;59335;46.652;21.272;2024-01-30T04:23:08;41.30;;;28.40;;
71513;SDS011;59335;46.652;21.272;2024-01-30T04:26:11;41.63;;;26.48;;
71513;SDS011;59335;46.652;21.272;2024-01-30T04:29:13;39.53;;;25.40;;
71513;SDS011;59335;46.652;21.272;2024-01-30T04:32:16;39.97;;;26.93;;
71513;SDS011;59335;46.652;21.272;2024-01-30T04:35:20;38.88;;;26.08;;
71513;SDS011;59335;46.652;21.272;2024-01-30T04:38:26;37.03;;;25.30;;
71513;SDS011;59335;46.652;21.272;2024-01-30T04:41:29;38.83;;;25.30;;
71513;SDS011;59335;46.652;21.272;2024-01-30T04:44:34;39.95;;;26.40;;
71513;SDS011;59335;46.652;21.272;2024-01-30T04:47:36;35.70;;;25.60;;
71513;SDS011;59335;46.652;21.272;2024-01-30T04:50:39;38.00;;;24.42;;
71513;SDS011;59335;46.652;21.272;2024-01-30T04:53:42;40.50;;;25.67;;
71513;SDS011;59335;46.652;21.272;2024-01-30T04:56:45;37.72;;;23.95;;
71513;SDS011;59335;46.652;21.272;2024-01-30T04:59:48;36.58;;;24.40;;
71513;SDS011;59335;46.652;21.272;2024-01-30T05:02:51;35.00;;;24.43;;
71513;SDS011;59335;46.652;21.272;2024-01-30T05:05:54;34.25;;;23.17;;
71513;SDS011;59335;46.652;21.272;2024-01-30T05:08:57;36.22;;;23.65;;
71513;SDS011;59335;46.652;21.272;2024-01-30T05:12:00;35.88;;;23.70;;
71513;SDS011;59335;46.652;21.272;2024-01-30T05:15:03;34.63;;;24.25;;
71513;SDS011;59335;46.652;21.272;2024-01-30T05:18:07;33.50;;;23.33;;
71513;SDS011;59335;46.652;21.272;2024-01-30T05:21:10;34.75;;;23.10;;
71513;SDS011;59335;46.652;21.272;2024-01-30T05:24:13;36.95;;;22.88;;
71513;SDS011;59335;46.652;21.272;2024-01-30T05:27:16;35.10;;;22.65;;
71513;SDS011;59335;46.652;21.272;2024-01-30T05:30:19;32.85;;;21.55;;
71513;SDS011;59335;46.652;21.272;2024-01-30T05:33:22;32.30;;;21.77;;
71513;SDS011;59335;46.652;21.272;2024-01-30T05:36:25;36.05;;;22.75;;
71513;SDS011;59335;46.652;21.272;2024-01-30T05:39:28;31.88;;;20.75;;
71513;SDS011;59335;46.652;21.272;2024-01-30T05:42:30;32.22;;;21.25;;
71513;SDS011;59335;46.652;21.272;2024-01-30T05:45:34;33.03;;;22.17;;
71513;SDS011;59335;46.652;21.272;2024-01-30T05:48:40;33.77;;;21.43;;
71513;SDS011;59335;46.652;21.272;2024-01-30T05:51:43;32.83;;;21.38;;
71513;SDS011;59335;46.652;21.272;2024-01-30T05:54:47;34.20;;;22.10;;
71513;SDS011;59335;46.652;21.272;2024-01-30T05:57:50;33.95;;;22.20;;
71513;SDS011;59335;46.652;21.272;2024-01-30T06:00:55;28.92;;;20.65;;
71513;SDS011;59335;46.652;21.272;2024-01-30T06:03:57;31.77;;;21.37;;
71513;SDS011;59335;46.652;21.272;2024-01-30T06:07:01;30.85;;;20.55;;
71513;SDS011;59335;46.652;21.272;2024-01-30T06:10:05;32.08;;;21.27;;
71513;SDS011;59335;46.652;21.272;2024-01-30T06:13:09;32.25;;;22.05;;
71513;SDS011;59335;46.652;21.272;2024-01-30T06:16:12;32.22;;;21.80;;
71513;SDS011;59335;46.652;21.272;2024-01-30T06:19:15;31.13;;;21.30;;
71513;SDS011;59335;46.652;21.272;2024-01-30T06:22:18;30.83;;;20.95;;
71513;SDS011;59335;46.652;21.272;2024-01-30T06:25:21;29.90;;;20.65;;
71513;SDS011;59335;46.652;21.272;2024-01-30T06:28:24;30.30;;;20.88;;
71513;SDS011;59335;46.652;21.272;2024-01-30T06:31:39;31.00;;;20.20;;
71513;SDS011;59335;46.652;21.272;2024-01-30T06:34:42;30.90;;;20.60;;
71513;SDS011;59335;46.652;21.272;2024-01-30T06:37:46;32.92;;;21.00;;
71513;SDS011;59335;46.652;21.272;2024-01-30T06:40:49;30.83;;;20.05;;
71513;SDS011;59335;46.652;21.272;2024-01-30T06:43:52;32.33;;;20.27;;
71513;SDS011;59335;46.652;21.272;2024-01-30T06:46:55;27.60;;;18.95;;
71513;SDS011;59335;46.652;21.272;2024-01-30T06:49:58;29.60;;;19.73;;
71513;SDS011;59335;46.652;21.272;2024-01-30T06:53:08;30.45;;;20.08;;
71513;SDS011;59335;46.652;21.272;2024-01-30T06:56:12;31.45;;;20.00;;
71513;SDS011;59335;46.652;21.272;2024-01-30T06:59:16;30.27;;;20.33;;
71513;SDS011;59335;46.652;21.272;2024-01-30T07:02:25;30.13;;;19.38;;
71513;SDS011;59335;46.652;21.272;2024-01-30T07:05:31;31.77;;;20.23;;
71513;SDS011;59335;46.652;21.272;2024-01-30T07:08:39;28.50;;;19.13;;
71513;SDS011;59335;46.652;21.272;2024-01-30T07:12:04;27.80;;;18.15;;
71513;SDS011;59335;46.652;21.272;2024-01-30T07:15:08;28.42;;;19.20;;
71513;SDS011;59335;46.652;21.272;2024-01-30T07:18:12;27.95;;;19.05;;
71513;SDS011;59335;46.652;21.272;2024-01-30T07:21:19;29.50;;;18.43;;
71513;SDS011;59335;46.652;21.272;2024-01-30T07:24:41;27.27;;;18.08;;
71513;SDS011;59335;46.652;21.272;2024-01-30T07:27:50;30.67;;;18.67;;
71513;SDS011;59335;46.652;21.272;2024-01-30T07:31:00;29.38;;;18.40;;
71513;SDS011;59335;46.652;21.272;2024-01-30T07:34:09;26.15;;;18.13;;
71513;SDS011;59335;46.652;21.272;2024-01-30T07:37:13;25.57;;;17.20;;
71513;SDS011;59335;46.652;21.272;2024-01-30T07:40:23;27.10;;;16.88;;
71513;SDS011;59335;46.652;21.272;2024-01-30T07:43:27;29.20;;;16.95;;
71513;SDS011;59335;46.652;21.272;2024-01-30T07:46:33;26.25;;;16.88;;
71513;SDS011;59335;46.652;21.272;2024-01-30T07:49:36;26.80;;;16.70;;
71513;SDS011;59335;46.652;21.272;2024-01-30T07:52:40;24.63;;;16.60;;
71513;SDS011;59335;46.652;21.272;2024-01-30T07:55:43;26.27;;;16.52;;
71513;SDS011;59335;46.652;21.272;2024-01-30T07:58:49;25.77;;;16.15;;
71513;SDS011;59335;46.652;21.272;2024-01-30T08:01:52;27.67;;;16.25;;
71513;SDS011;59335;46.652;21.272;2024-01-30T08:04:55;27.10;;;15.98;;
71513;SDS011;59335;46.652;21.272;2024-01-30T08:07:58;26.43;;;15.27;;
71513;SDS011;59335;46.652;21.272;2024-01-30T08:11:01;26.83;;;15.98;;
71513;SDS011;59335;46.652;21.272;2024-01-30T08:14:04;24.92;;;15.40;;
71513;SDS011;59335;46.652;21.272;2024-01-30T08:17:07;24.88;;;15.18;;
71513;SDS011;59335;46.652;21.272;2024-01-30T08:20:10;23.95;;;15.35;;
71513;SDS011;59335;46.652;21.272;2024-01-30T08:23:14;22.97;;;15.70;;
71513;SDS011;59335;46.652;21.272;2024-01-30T08:26:18;26.25;;;15.45;;
71513;SDS011;59335;46.652;21.272;2024-01-30T08:29:20;22.77;;;14.40;;
71513;SDS011;59335;46.652;21.272;2024-01-30T08:32:23;23.27;;;14.43;;
71513;SDS011;59335;46.652;21.272;2024-01-30T08:35:26;24.92;;;14.88;;
71513;SDS011;59335;46.652;21.272;2024-01-30T08:38:31;20.27;;;14.03;;
71513;SDS011;59335;46.652;21.272;2024-01-30T08:41:35;23.48;;;14.75;;
71513;SDS011;59335;46.652;21.272;2024-01-30T08:44:38;22.58;;;14.90;;
71513;SDS011;59335;46.652;21.272;2024-01-30T08:47:41;22.20;;;14.07;;
71513;SDS011;59335;46.652;21.272;2024-01-30T08:50:44;25.45;;;14.35;;
71513;SDS011;59335;46.652;21.272;2024-01-30T08:53:48;24.20;;;14.07;;
71513;SDS011;59335;46.652;21.272;2024-01-30T08:56:54;24.63;;;14.25;;
71513;SDS011;59335;46.652;21.272;2024-01-30T08:59:59;20.48;;;13.32;;
71513;SDS011;59335;46.652;21.272;2024-01-30T09:03:03;22.23;;;13.43;;
71513;SDS011;59335;46.652;21.272;2024-01-30T09:06:10;26.13;;;13.18;;
71513;SDS011;59335;46.652;21.272;2024-01-30T09:09:14;22.73;;;13.30;;
71513;SDS011;59335;46.652;21.272;2024-01-30T09:12:17;21.50;;;13.18;;
71513;SDS011;59335;46.652;21.272;2024-01-30T09:15:20;21.70;;;13.50;;
71513;SDS011;59335;46.652;21.272;2024-01-30T09:18:26;22.55;;;13.13;;
71513;SDS011;59335;46.652;21.272;2024-01-30T09:21:32;23.88;;;13.45;;
71513;SDS011;59335;46.652;21.272;2024-01-30T09:24:39;18.90;;;12.10;;
71513;SDS011;59335;46.652;21.272;2024-01-30T09:27:42;18.40;;;11.80;;
71513;SDS011;59335;46.652;21.272;2024-01-30T09:30:47;21.60;;;11.88;;
71513;SDS011;59335;46.652;21.272;2024-01-30T09:33:50;21.67;;;11.43;;
71513;SDS011;59335;46.652;21.272;2024-01-30T09:36:56;19.65;;;12.07;;
71513;SDS011;59335;46.652;21.272;2024-01-30T09:39:59;21.83;;;12.10;;
71513;SDS011;59335;46.652;21.272;2024-01-30T09:43:03;18.77;;;11.80;;
71513;SDS011;59335;46.652;21.272;2024-01-30T09:46:07;23.85;;;12.38;;
71513;SDS011;59335;46.652;21.272;2024-01-30T09:49:14;23.00;;;12.05;;
71513;SDS011;59335;46.652;21.272;2024-01-30T09:52:23;20.67;;;12.00;;
71513;SDS011;59335;46.652;21.272;2024-01-30T09:55:26;19.60;;;11.27;;
71513;SDS011;59335;46.652;21.272;2024-01-30T09:58:30;21.33;;;11.18;;
71513;SDS011;59335;46.652;21.272;2024-01-30T10:01:34;18.10;;;11.07;;
71513;SDS011;59335;46.652;21.272;2024-01-30T10:04:43;19.63;;;10.80;;
71513;SDS011;59335;46.652;21.272;2024-01-30T10:07:54;23.42;;;11.43;;
71513;SDS011;59335;46.652;21.272;2024-01-30T10:10:58;21.00;;;10.83;;
71513;SDS011;59335;46.652;21.272;2024-01-30T10:14:01;18.15;;;10.43;;
71513;SDS011;59335;46.652;21.272;2024-01-30T10:17:05;24.23;;;10.30;;
71513;SDS011;59335;46.652;21.272;2024-01-30T10:20:24;21.70;;;10.70;;
71513;SDS011;59335;46.652;21.272;2024-01-30T10:23:28;23.55;;;10.88;;
71513;SDS011;59335;46.652;21.272;2024-01-30T10:26:38;21.87;;;11.17;;
71513;SDS011;59335;46.652;21.272;2024-01-30T10:29:43;17.58;;;10.32;;
71513;SDS011;59335;46.652;21.272;2024-01-30T10:32:46;21.02;;;10.27;;
71513;SDS011;59335;46.652;21.272;2024-01-30T10:35:50;16.65;;;10.02;;
71513;SDS011;59335;46.652;21.272;2024-01-30T10:38:55;16.42;;;10.25;;
71513;SDS011;59335;46.652;21.272;2024-01-30T10:42:03;21.43;;;10.50;;
71513;SDS011;59335;46.652;21.272;2024-01-30T10:45:11;15.55;;;10.10;;
71513;SDS011;59335;46.652;21.272;2024-01-30T10:48:21;18.35;;;10.48;;
71513;SDS011;59335;46.652;21.272;2024-01-30T10:51:32;21.30;;;9.95;;
71513;SDS011;59335;46.652;21.272;2024-01-30T10:54:40;18.45;;;9.38;;
71513;SDS011;59335;46.652;21.272;2024-01-30T10:57:44;17.47;;;10.00;;
71513;SDS011;59335;46.652;21.272;2024-01-30T11:00:48;16.55;;;9.35;;
71513;SDS011;59335;46.652;21.272;2024-01-30T11:03:54;15.80;;;9.43;;
71513;SDS011;59335;46.652;21.272;2024-01-30T11:07:00;18.20;;;9.32;;
71513;SDS011;59335;46.652;21.272;2024-01-30T11:10:06;20.92;;;9.68;;
71513;SDS011;59335;46.652;21.272;2024-01-30T11:13:13;19.70;;;8.80;;
71513;SDS011;59335;46.652;21.272;2024-01-30T11:16:16;20.00;;;9.35;;
71513;SDS011;59335;46.652;21.272;2024-01-30T11:19:22;18.55;;;9.05;;
71513;SDS011;59335;46.652;21.272;2024-01-30T11:22:30;20.17;;;9.13;;
71513;SDS011;59335;46.652;21.272;2024-01-30T11:25:33;18.27;;;8.93;;
71513;SDS011;59335;46.652;21.272;2024-01-30T11:28:37;17.23;;;9.60;;
71513;SDS011;59335;46.652;21.272;2024-01-30T11:31:51;17.75;;;9.00;;
71513;SDS011;59335;46.652;21.272;2024-01-30T11:34:55;17.83;;;8.45;;
71513;SDS011;59335;46.652;21.272;2024-01-30T11:37:59;20.33;;;8.75;;
71513;SDS011;59335;46.652;21.272;2024-01-30T11:41:03;18.33;;;9.10;;
71513;SDS011;59335;46.652;21.272;2024-01-30T11:44:07;16.37;;;9.10;;
71513;SDS011;59335;46.652;21.272;2024-01-30T11:47:11;17.13;;;8.60;;
71513;SDS011;59335;46.652;21.272;2024-01-30T11:50:15;15.32;;;8.55;;
71513;SDS011;59335;46.652;21.272;2024-01-30T11:53:18;18.17;;;9.00;;
71513;SDS011;59335;46.652;21.272;2024-01-30T11:56:22;20.10;;;8.15;;
71513;SDS011;59335;46.652;21.272;2024-01-30T11:59:27;14.57;;;8.53;;
71513;SDS011;59335;46.652;21.272;2024-01-30T12:02:38;19.58;;;9.15;;
71513;SDS011;59335;46.652;21.272;2024-01-30T12:05:41;13.98;;;7.68;;
71513;SDS011;59335;46.652;21.272;2024-01-30T12:08:57;14.13;;;7.80;;
71513;SDS011;59335;46.652;21.272;2024-01-30T12:12:01;19.92;;;8.10;;
71513;SDS011;59335;46.652;21.272;2024-01-30T12:15:04;16.80;;;8.10;;
71513;SDS011;59335;46.652;21.272;2024-01-30T12:18:09;17.30;;;7.88;;
71513;SDS011;59335;46.652;21.272;2024-01-30T12:21:12;15.20;;;7.70;;
71513;SDS011;59335;46.652;21.272;2024-01-30T12:24:15;17.85;;;7.90;;
71513;SDS011;59335;46.652;21.272;2024-01-30T12:27:17;14.50;;;7.80;;
71513;SDS011;59335;46.652;21.272;2024-01-30T12:30:20;17.63;;;8.43;;
71513;SDS011;59335;46.652;21.272;2024-01-30T12:33:26;13.68;;;8.18;;
71513;SDS011;59335;46.652;21.272;2024-01-30T12:36:31;14.98;;;7.63;;
71513;SDS011;59335;46.652;21.272;2024-01-30T12:39:34;17.75;;;8.43;;
71513;SDS011;59335;46.652;21.272;2024-01-30T12:42:38;18.73;;;8.25;;
71513;SDS011;59335;46.652;21.272;2024-01-30T12:45:41;13.63;;;7.30;;
71513;SDS011;59335;46.652;21.272;2024-01-30T12:48:45;13.75;;;7.32;;
71513;SDS011;59335;46.652;21.272;2024-01-30T12:51:48;16.45;;;7.95;;
71513;SDS011;59335;46.652;21.272;2024-01-30T12:54:51;17.10;;;8.27;;
71513;SDS011;59335;46.652;21.272;2024-01-30T12:57:54;11.68;;;7.30;;
71513;SDS011;59335;46.652;21.272;2024-01-30T13:00:58;15.70;;;7.80;;
71513;SDS011;59335;46.652;21.272;2024-01-30T13:04:00;16.95;;;7.35;;
71513;SDS011;59335;46.652;21.272;2024-01-30T13:07:04;18.40;;;7.60;;
71513;SDS011;59335;46.652;21.272;2024-01-30T13:10:07;17.77;;;8.02;;
71513;SDS011;59335;46.652;21.272;2024-01-30T13:13:10;15.05;;;7.50;;
71513;SDS011;59335;46.652;21.272;2024-01-30T13:16:24;15.80;;;7.00;;
71513;SDS011;59335;46.652;21.272;2024-01-30T13:19:27;15.80;;;7.95;;
71513;SDS011;59335;46.652;21.272;2024-01-30T13:22:30;16.58;;;7.25;;
71513;SDS011;59335;46.652;21.272;2024-01-30T13:25:35;15.13;;;7.28;;
71513;SDS011;59335;46.652;21.272;2024-01-30T13:28:38;16.13;;;7.72;;
71513;SDS011;59335;46.652;21.272;2024-01-30T13:31:41;14.93;;;7.17;;
71513;SDS011;59335;46.652;21.272;2024-01-30T13:34:46;14.00;;;7.93;;
71513;SDS011;59335;46.652;21.272;2024-01-30T13:37:52;18.30;;;7.50;;
71513;SDS011;59335;46.652;21.272;2024-01-30T13:41:03;15.55;;;7.28;;
71513;SDS011;59335;46.652;21.272;2024-01-30T13:44:06;16.42;;;6.70;;
71513;SDS011;59335;46.652;21.272;2024-01-30T13:47:10;11.57;;;6.63;;
71513;SDS011;59335;46.652;21.272;2024-01-30T13:50:13;15.55;;;6.97;;
71513;SDS011;59335;46.652;21.272;2024-01-30T13:53:19;15.90;;;6.95;;
71513;SDS011;59335;46.652;21.272;2024-01-30T13:56:22;14.50;;;7.03;;
71513;SDS011;59335;46.652;21.272;2024-01-30T13:59:28;14.05;;;6.97;;
71513;SDS011;59335;46.652;21.272;2024-01-30T14:02:32;14.37;;;6.80;;
71513;SDS011;59335;46.652;21.272;2024-01-30T14:05:35;14.10;;;6.65;;
71513;SDS011;59335;46.652;21.272;2024-01-30T14:08:42;16.73;;;6.85;;
71513;SDS011;59335;46.652;21.272;2024-01-30T14:11:54;14.82;;;6.85;;
71513;SDS011;59335;46.652;21.272;2024-01-30T14:14:57;15.30;;;7.15;;
71513;SDS011;59335;46.652;21.272;2024-01-30T14:18:00;15.87;;;6.87;;
71513;SDS011;59335;46.652;21.272;2024-01-30T14:21:03;11.80;;;6.50;;
71513;SDS011;59335;46.652;21.272;2024-01-30T14:24:06;13.10;;;6.50;;
71513;SDS011;59335;46.652;21.272;2024-01-30T14:27:09;13.82;;;6.93;;
71513;SDS011;59335;46.652;21.272;2024-01-30T14:30:13;14.32;;;6.50;;
71513;SDS011;59335;46.652;21.272;2024-01-30T14:33:16;14.47;;;6.10;;
71513;SDS011;59335;46.652;21.272;2024-01-30T14:36:19;17.60;;;6.80;;
71513;SDS011;59335;46.652;21.272;2024-01-30T14:39:23;13.10;;;5.82;;
71513;SDS011;59335;46.652;21.272;2024-01-30T14:42:26;14.07;;;6.15;;
71513;SDS011;59335;46.652;21.272;2024-01-30T14:45:33;14.80;;;6.60;;
71513;SDS011;59335;46.652;21.272;2024-01-30T14:48:36;10.87;;;5.63;;
71513;SDS011;59335;46.652;21.272;2024-01-30T14:51:41;14.90;;;6.07;;
71513;SDS011;59335;46.652;21.272;2024-01-30T14:54:44;10.80;;;5.95;;
71513;SDS011;59335;46.652;21.272;2024-01-30T14:57:47;14.98;;;6.10;;
71513;SDS011;59335;46.652;21.272;2024-01-30T15:00:51;12.90;;;5.90;;
71513;SDS011;59335;46.652;21.272;2024-01-30T15:03:54;13.60;;;6.00;;
71513;SDS011;59335;46.652;21.272;2024-01-30T15:06:58;13.60;;;6.10;;
71513;SDS011;59335;46.652;21.272;2024-01-30T15:10:05;19.40;;;6.30;;
71513;SDS011;59335;46.652;21.272;2024-01-30T15:13:10;20.92;;;7.22;;
71513;SDS011;59335;46.652;21.272;2024-01-30T15:16:14;21.08;;;7.13;;
71513;SDS011;59335;46.652;21.272;2024-01-30T15:19:19;18.50;;;7.13;;
71513;SDS011;59335;46.652;21.272;2024-01-30T15:22:22;18.75;;;7.65;;
71513;SDS011;59335;46.652;21.272;2024-01-30T15:25:26;21.02;;;7.15;;
71513;SDS011;59335;46.652;21.272;2024-01-30T15:28:35;22.80;;;7.75;;
71513;SDS011;59335;46.652;21.272;2024-01-30T15:31:40;19.08;;;7.20;;
71513;SDS011;59335;46.652;21.272;2024-01-30T15:34:43;19.40;;;7.17;;
71513;SDS011;59335;46.652;21.272;2024-01-30T15:37:46;18.67;;;7.10;;
71513;SDS011;59335;46.652;21.272;2024-01-30T15:40:49;16.73;;;6.80;;
71513;SDS011;59335;46.652;21.272;2024-01-30T15:43:52;14.82;;;7.25;;
71513;SDS011;59335;46.652;21.272;2024-01-30T15:46:54;19.95;;;7.38;;
71513;SDS011;59335;46.652;21.272;2024-01-30T15:49:57;14.37;;;6.63;;
71513;SDS011;59335;46.652;21.272;2024-01-30T15:53:00;15.98;;;6.43;;
71513;SDS011;59335;46.652;21.272;2024-01-30T15:56:03;14.60;;;6.72;;
71513;SDS011;59335;46.652;21.272;2024-01-30T15:59:06;21.05;;;7.70;;
71513;SDS011;59335;46.652;21.272;2024-01-30T16:02:09;20.35;;;7.50;;
71513;SDS011;59335;46.652;21.272;2024-01-30T16:05:13;18.13;;;7.47;;
71513;SDS011;59335;46.652;21.272;2024-01-30T16:08:18;22.17;;;8.20;;
71513;SDS011;59335;46.652;21.272;2024-01-30T16:11:21;18.00;;;7.68;;
71513;SDS011;59335;46.652;21.272;2024-01-30T16:14:24;30.63;;;7.82;;
71513;SDS011;59335;46.652;21.272;2024-01-30T16:17:27;27.42;;;9.00;;
71513;SDS011;59335;46.652;21.272;2024-01-30T16:20:29;31.07;;;8.33;;
71513;SDS011;59335;46.652;21.272;2024-01-30T16:23:33;23.58;;;8.93;;
71513;SDS011;59335;46.652;21.272;2024-01-30T16:26:35;24.30;;;9.77;;
71513;SDS011;59335;46.652;21.272;2024-01-30T16:29:39;29.02;;;9.88;;
71513;SDS011;59335;46.652;21.272;2024-01-30T16:32:42;24.67;;;11.27;;
71513;SDS011;59335;46.652;21.272;2024-01-30T16:35:45;33.00;;;12.97;;
71513;SDS011;59335;46.652;21.272;2024-01-30T16:38:49;30.13;;;14.13;;
71513;SDS011;59335;46.652;21.272;2024-01-30T16:41:52;29.65;;;12.95;;
71513;SDS011;59335;46.652;21.272;2024-01-30T16:44:54;31.02;;;15.70;;
71513;SDS011;59335;46.652;21.272;2024-01-30T16:47:57;36.20;;;17.40;;
71513;SDS011;59335;46.652;21.272;2024-01-30T16:51:01;30.23;;;16.57;;
71513;SDS011;59335;46.652;21.272;2024-01-30T16:54:04;32.40;;;15.10;;
71513;SDS011;59335;46.652;21.272;2024-01-30T16:57:07;33.83;;;16.58;;
71513;SDS011;59335;46.652;21.272;2024-01-30T17:00:17;35.83;;;16.20;;
71513;SDS011;59335;46.652;21.272;2024-01-30T17:03:20;33.42;;;17.10;;
71513;SDS011;59335;46.652;21.272;2024-01-30T17:06:23;31.87;;;16.47;;
71513;SDS011;59335;46.652;21.272;2024-01-30T17:09:26;35.30;;;16.13;;
71513;SDS011;59335;46.652;21.272;2024-01-30T17:12:29;31.73;;;16.85;;
71513;SDS011;59335;46.652;21.272;2024-01-30T17:15:33;39.15;;;16.25;;
71513;SDS011;59335;46.652;21.272;2024-01-30T17:18:37;35.05;;;17.88;;
71513;SDS011;59335;46.652;21.272;2024-01-30T17:21:39;36.10;;;17.10;;
71513;SDS011;59335;46.652;21.272;2024-01-30T17:24:42;34.20;;;17.08;;
71513;SDS011;59335;46.652;21.272;2024-01-30T17:27:52;37.85;;;18.25;;
71513;SDS011;59335;46.652;21.272;2024-01-30T17:30:55;35.63;;;17.85;;
71513;SDS011;59335;46.652;21.272;2024-01-30T17:33:58;36.22;;;17.85;;
71513;SDS011;59335;46.652;21.272;2024-01-30T17:37:01;34.87;;;19.00;;
71513;SDS011;59335;46.652;21.272;2024-01-30T17:40:05;37.55;;;19.30;;
71513;SDS011;59335;46.652;21.272;2024-01-30T17:43:09;39.20;;;19.08;;
71513;SDS011;59335;46.652;21.272;2024-01-30T17:46:12;40.40;;;20.45;;